Latest Weather Observations for Glen Innes Airport

IDN60801

Issued at 7:52 am EST Tuesday 21 August 2018 (issued every 10 minutes, with the page automatically refreshed every 10 minutes)

About weather observations | Map of weather stations | Latest weather observations for NSW | Other Formats
Station Details ID: 056243 Name: GLEN INNES AIRPORT AWS Lat: -29.68 Lon: 151.69 Height: 1044.3 m
Data from the previous 72 hours. | See also: Recent months at Glen Innes Airport
Date/Time
EST
Temp
°C
App
Temp
°C
Dew
Point
°C
Rel
Hum
%
Delta-T
°C
Wind Press
QNH
hPa
Press
MSL
hPa
Rain since
9am
mm
Dir  Spd
km/h
Gust
km/h
Spd
kts
Gust
kts
21/07:30am 0.0 -2.5 -4.4 72 1.5 CALM 0 4 0 2 1019.2 1019.3 0.0
21/07:00am -3.8 -8.5 -9.2 66 1.4 SW 9 13 5 7 1019.3 1019.4 0.0
21/06:45am -2.9 -7.6 -5.4 83 0.7 S 11 11 6 6 1019.1 1019.2 0.0
21/06:30am -7.9 -12.4 -11.0 78 0.5 SSE 7 11 4 6 1019.1 1019.2 0.0
21/06:00am -6.3 -9.5 -11.6 66 1.2 CALM 0 0 0 0 1018.6 1018.7 0.0
21/05:30am -3.6 -6.8 -7.2 76 1.0 SE 2 6 1 3 1018.7 1018.8 0.0
21/05:00am -3.6 -8.2 -8.1 71 1.2 W 9 11 5 6 1018.5 1018.6 0.0
21/04:30am -4.0 -8.1 -8.5 71 1.2 NW 6 9 3 5 1018.4 1018.5 0.0
21/04:00am -3.5 -6.8 -8.3 69 1.3 WSW 2 7 1 4 1018.7 1018.8 0.0
21/03:30am -2.7 -7.0 -8.7 63 1.7 NW 7 9 4 5 1018.3 1018.4 0.0
21/03:00am -1.4 -5.7 -8.6 58 2.1 N 7 9 4 5 1018.5 1018.6 0.0
21/02:30am -0.5 -4.6 -8.4 55 2.4 W 6 7 3 4 1018.8 1019.0 0.0
21/02:00am 0.7 -4.3 -8.0 52 2.8 WSW 11 17 6 9 1019.3 1019.4 0.0
21/01:30am 0.7 -4.0 -9.0 48 3.0 SSW 9 15 5 8 1019.5 1019.6 0.0
21/01:00am 0.8 -4.6 -8.7 49 3.0 SW 13 17 7 9 1019.5 1019.6 0.0
21/12:30am 0.2 -4.0 -10.3 45 3.1 SSE 6 7 3 4 1019.4 1019.5 0.0
21/12:00am 1.6 -2.6 -9.9 42 3.6 SSE 6 9 3 5 1019.5 1019.6 0.0
 
Date/Time
EST
Temp
°C
App
Temp
°C
Dew
Point
°C
Rel
Hum
%
Delta-T
°C
Wind Press
QNH
hPa
Press
MSL
hPa
Rain since
9am
mm
Dir  Spd
km/h
Gust
km/h
Spd
kts
Gust
kts
20/11:30pm 1.8 -2.4 -9.7 42 3.6 SSW 6 9 3 5 1019.6 1019.8 0.0
20/11:00pm 1.0 -3.2 -9.6 45 3.3 SW 6 13 3 7 1019.9 1020.1 0.0
20/10:30pm 2.1 -2.5 -8.3 46 3.4 SSE 9 11 5 6 1020.2 1020.3 0.0
20/10:00pm -1.9 -6.2 -9.5 56 2.2 S 7 9 4 5 1020.2 1020.3 0.0
20/09:30pm -1.5 -5.6 -9.1 56 2.2 SSW 6 9 3 5 1020.4 1020.5 0.0
20/09:00pm -1.3 -6.1 -11.1 47 2.7 SSW 9 13 5 7 1020.5 1020.7 0.0
20/08:30pm 0.9 -4.7 -10.5 42 3.5 SW 13 15 7 8 1020.6 1020.8 0.0
20/08:00pm 1.1 -2.4 -10.4 42 3.5 WSW 2 7 1 4 1020.3 1020.4 0.0
20/07:30pm 2.5 -1.8 -11.0 36 4.2 NW 6 9 3 5 1019.9 1020.1 0.0
20/07:00pm 2.7 -2.5 -10.5 37 4.2 SW 11 15 6 8 1019.7 1019.9 0.0
20/06:30pm 3.4 -2.5 -10.6 35 4.5 WSW 15 17 8 9 1019.4 1019.5 0.0
20/06:00pm 4.9 -1.1 -11.2 30 5.2 WSW 15 20 8 11 1019.1 1019.2 0.0
20/05:30pm 6.6 0.3 -10.6 28 5.5 WSW 17 24 9 13 1018.7 1018.8 0.0
20/05:00pm 8.4 1.4 -12.0 22 6.5 WSW 20 28 11 15 1018.1 1018.2 0.0
20/04:30pm 9.5 1.8 -11.7 21 6.9 WSW 24 33 13 18 1017.8 1017.9 0.0
20/04:00pm 10.4 2.7 -11.0 21 7.1 WSW 24 35 13 19 1017.6 1017.7 0.0
20/03:30pm 10.5 2.4 -12.1 19 7.4 WSW 26 35 14 19 1017.5 1017.6 0.0
20/03:00pm 11.2 3.1 -10.9 20 7.5 WSW 26 35 14 19 1017.4 1017.5 0.0
20/02:30pm 11.5 3.8 -11.3 19 7.7 WSW 24 35 13 19 1017.3 1017.4 0.0
20/02:00pm 11.7 4.5 -9.9 21 7.5 WSW 22 33 12 18 1017.3 1017.4 0.0
20/01:30pm 10.9 4.0 -11.1 20 7.4 SW 20 33 11 18 1017.4 1017.5 0.0
20/01:00pm 10.4 3.2 -9.8 23 6.9 SW 22 32 12 17 1017.4 1017.5 0.0
20/12:30pm 10.3 2.8 -8.8 25 6.7 SSW 24 32 13 17 1017.8 1017.9 0.0
20/12:00pm 9.7 1.3 -9.9 24 6.6 WSW 28 39 15 21 1018.1 1018.2 0.0
20/11:30am 9.9 2.2 -11.4 21 7.0 SSW 24 33 13 18 1018.4 1018.5 0.0
20/11:00am 9.2 0.8 -10.8 23 6.6 SSW 28 43 15 23 1018.6 1018.7 0.0
20/10:56am 9.2 0.0 -11.4 22 6.7 SSW 32 50 17 27 1018.7 1018.8 0.0
20/10:30am 7.7 -1.8 -12.6 22 6.3 SSW 33 46 18 25 1018.5 1018.6 0.0
20/10:09am 7.6 -0.8 -10.2 27 5.8 SSW 28 46 15 25 1018.5 1018.6 0.0
20/10:00am 7.5 -0.4 -8.9 30 5.5 SW 26 41 14 22 1018.5 1018.6 0.0
20/09:30am 6.0 -4.4 -9.4 32 5.0 SSW 39 52 21 28 1018.4 1018.5 0.0
20/09:20am 5.6 -3.6 -9.0 34 4.8 SSW 33 52 18 28 1018.3 1018.4 0.0
20/09:00am 5.0 -4.5 -7.8 39 4.3 SSW 35 46 19 25 1017.9 1018.1 0.0
20/08:30am 3.7 -5.7 -6.8 46 3.5 SSW 35 48 19 26 1017.9 1018.1 0.0
20/08:19am 2.9 -6.6 -7.0 48 3.5 SSW 35 54 19 29 1017.9 1018.1 0.0
20/08:00am 2.3 -6.4 -5.3 57 2.8 SW 32 43 17 23 1018.1 1018.2 0.0
20/07:30am 0.9 -7.8 -5.1 64 2.1 SW 32 41 17 22 1017.8 1017.9 0.0
20/07:00am -0.3 -9.0 -5.1 70 1.6 SW 32 43 17 23 1017.7 1017.8 0.0
20/06:30am -1.1 -9.8 -5.0 75 1.3 SW 32 43 17 23 1017.2 1017.3 0.0
20/06:00am -1.2 -8.7 -4.7 77 1.1 SW 26 35 14 19 1016.7 1016.8 0.0
20/05:30am -1.2 -8.7 -4.4 79 1.0 WSW 26 35 14 19 1016.6 1016.7 0.0
20/05:00am -0.8 -9.4 -4.1 78 1.1 WSW 32 41 17 22 1016.4 1016.5 0.0
20/04:30am -0.3 -8.9 -4.2 75 1.3 SW 32 44 17 24 1016.3 1016.4 0.0
20/04:00am -0.2 -8.1 -4.4 73 1.4 SW 28 41 15 22 1016.3 1016.4 0.0
20/03:30am 0.1 -7.4 -4.2 73 1.5 SW 26 46 14 25 1016.4 1016.5 0.0
20/03:24am 0.1 -7.7 -4.2 73 1.5 SW 28 46 15 25 1016.2 1016.2 0.0
20/03:00am 0.2 -8.0 -4.4 71 1.6 SW 30 43 16 23 1016.1 1016.1 0.0
20/02:30am 0.6 -8.2 -4.2 70 1.7 SW 33 48 18 26 1016.1 1016.1 0.0
20/02:00am 0.6 -7.3 -4.6 68 1.8 SW 28 43 15 23 1016.3 1016.4 0.0
20/01:30am 1.0 -6.5 -4.6 66 2.0 SW 26 43 14 23 1017.0 1017.0 0.0
20/01:00am 1.3 -6.6 -5.0 63 2.2 WSW 28 41 15 22 1016.8 1016.9 0.0
20/12:41am 1.7 -6.2 -5.0 61 2.4 SW 28 46 15 25 1017.0 1017.0 0.0
20/12:30am 1.5 -6.8 -5.4 60 2.4 SW 30 43 16 23 1017.2 1017.3 0.0
20/12:00am 2.0 -7.0 -6.1 55 2.9 WSW 33 54 18 29 1017.0 1017.0 0.0
 
Date/Time
EST
Temp
°C
App
Temp
°C
Dew
Point
°C
Rel
Hum
%
Delta-T
°C
Wind Press
QNH
hPa
Press
MSL
hPa
Rain since
9am
mm
Dir  Spd
km/h
Gust
km/h
Spd
kts
Gust
kts
19/11:45pm 2.4 -6.0 -6.2 53 3.1 WSW 30 50 16 27 1017.3 1017.4 0.0
19/11:30pm 2.4 -4.9 -5.9 54 3.0 WSW 24 35 13 19 1017.5 1017.6 0.0
19/11:00pm 3.2 -6.2 -6.5 49 3.5 WSW 35 56 19 30 1017.3 1017.4 0.0
19/10:42pm 3.4 -6.4 -6.5 48 3.4 WSW 37 56 20 30 1017.2 1017.3 0.0
19/10:30pm 3.6 -6.9 -6.4 48 3.4 WSW 41 54 22 29 1017.1 1017.1 0.0
19/10:00pm 3.9 -4.9 -6.6 46 3.6 WSW 32 50 17 27 1017.6 1017.7 0.0
19/09:55pm 4.0 -4.8 -6.6 46 3.6 WSW 32 50 17 27 1017.6 1017.7 0.0
19/09:30pm 3.7 -3.9 -6.0 49 3.3 WSW 26 37 14 20 1017.9 1018.1 0.0
19/09:00pm 3.9 -3.8 -6.1 48 3.4 WSW 26 39 14 21 1017.7 1017.8 0.0
19/08:30pm 4.9 -4.4 -5.4 47 3.7 WSW 35 54 19 29 1017.7 1017.8 0.0
19/08:29pm 4.9 -4.1 -5.7 46 3.7 WSW 33 54 18 29 1017.7 1017.8 0.0
19/08:00pm 5.0 -3.0 -6.2 44 3.9 W 28 41 15 22 1017.3 1017.4 0.0
19/07:30pm 5.0 -3.1 -6.5 43 4.0 W 28 39 15 21 1017.4 1017.5 0.0
19/07:00pm 5.2 -2.5 -7.0 41 4.2 WSW 26 37 14 20 1017.2 1017.3 0.0
19/06:30pm 5.4 -2.8 -7.4 39 4.4 WSW 28 37 15 20 1016.7 1016.8 0.0
19/06:00pm 5.8 -2.0 -8.1 36 4.7 WSW 26 33 14 18 1016.4 1016.5 0.0
19/05:30pm 6.3 -2.4 -8.8 33 5.0 WSW 30 43 16 23 1016.1 1016.1 0.0
19/05:14pm 7.0 -2.2 -8.9 31 5.3 WSW 33 52 18 28 1016.0 1016.0 0.0
19/05:00pm 7.7 -1.6 -9.2 29 5.7 W 33 48 18 26 1015.5 1015.6 0.0
19/04:30pm 8.4 -1.3 -9.5 27 6.0 WSW 35 46 19 25 1015.3 1015.3 0.0
19/04:00pm 8.7 -1.4 -10.2 25 6.3 WSW 37 48 20 26 1015.3 1015.3 0.0
19/03:30pm 9.2 -1.3 -10.3 24 6.5 WSW 39 57 21 31 1015.2 1015.2 0.0
19/03:29pm 9.6 -0.9 -9.9 24 6.6 WSW 39 57 21 31 1015.2 1015.2 0.0
19/03:00pm 10.4 0.7 -9.3 24 6.8 WSW 35 48 19 26 1015.3 1015.3 0.0
19/02:40pm 9.7 -0.4 -10.4 23 6.7 WSW 37 56 20 30 1015.4 1015.4 0.0
19/02:30pm 9.8 -1.2 -11.5 21 7.0 SW 41 56 22 30 1015.4 1015.4 0.0
19/02:05pm 10.4 0.3 -9.8 23 6.9 WSW 37 56 20 30 1015.4 1015.4 0.0
19/02:00pm 9.8 -0.3 -10.9 22 6.9 SW 37 52 20 28 1015.4 1015.4 0.0
19/01:54pm 9.9 -1.0 -11.4 21 7.0 WSW 41 54 22 29 1015.4 1015.4 0.0
19/01:30pm 10.0 -1.3 -11.3 21 7.0 W 43 63 23 34 1015.3 1015.3 0.0
19/01:00pm 9.8 -0.2 -8.8 26 6.5 WSW 37 56 20 30 1015.7 1015.8 0.0
19/12:43pm 9.9 0.3 -9.2 25 6.6 WSW 35 54 19 29 1015.7 1015.8 0.0
19/12:36pm 10.4 0.4 -8.8 25 6.8 WSW 37 48 20 26 1016.0 1016.0 0.0
19/12:30pm 9.7 -1.1 -8.8 26 6.4 W 41 56 22 30 1016.0 1016.0 0.0
19/12:21pm 9.7 -0.3 -9.3 25 6.5 WSW 37 56 20 30 1016.2 1016.2 0.0
19/12:00pm 9.7 -1.4 -8.4 27 6.4 WSW 43 57 23 31 1016.5 1016.6 0.0
19/11:32am 8.7 -2.7 -9.2 27 6.1 W 44 63 24 34 1016.6 1016.7 0.0
19/11:30am 9.1 -2.2 -8.9 27 6.2 WSW 44 57 24 31 1016.7 1016.8 0.0
19/11:20am 8.8 -0.8 -8.2 29 5.9 WSW 35 54 19 29 1017.0 1017.0 0.0
19/11:00am 8.8 -1.0 -6.2 34 5.5 W 37 54 20 29 1017.1 1017.1 0.0
19/10:30am 8.2 -1.6 -6.3 35 5.3 W 37 44 20 24 1017.2 1017.3 0.0
19/10:06am 7.7 -1.6 -5.0 40 4.7 W 35 54 19 29 1017.2 1017.3 0.0
19/10:00am 7.6 -2.0 -4.8 41 4.6 W 37 46 20 25 1017.3 1017.4 0.0
19/09:42am 7.0 -2.3 -5.3 41 4.5 WSW 35 54 19 29 1017.3 1017.4 0.0
19/09:30am 7.5 -1.2 -3.6 45 4.3 WSW 33 44 18 24 1017.1 1017.1 0.0
19/09:03am 6.6 -1.9 -3.3 49 3.8 WSW 32 50 17 27 1017.1 1017.1 0.0
19/09:00am 6.3 -2.4 -3.6 49 3.7 WSW 33 50 18 27 1017.1 1017.1 0.0
19/08:30am 5.4 -2.7 -3.4 53 3.3 WSW 30 43 16 23 1016.8 1016.9 0.0
19/08:00am 4.7 -2.3 -3.1 57 2.9 WSW 24 33 13 18 1016.6 1016.7 0.0
19/07:30am 3.8 -2.8 -3.0 61 2.5 WSW 22 32 12 17 1016.4 1016.5 0.0
19/07:00am 2.9 -2.8 -3.4 63 2.3 WSW 17 22 9 12 1016.2 1016.2 0.0
19/06:30am 2.1 -3.6 -3.6 66 2.1 WSW 17 22 9 12 1016.1 1016.1 0.0
19/06:00am 2.2 -3.0 -3.1 68 1.9 WSW 15 22 8 12 1016.0 1016.0 0.0
19/05:30am 1.5 -3.1 -3.9 67 2.0 W 11 15 6 8 1016.0 1016.0 0.0
19/05:00am 2.7 -2.7 -4.1 61 2.4 W 15 20 8 11 1015.7 1015.8 0.0
19/04:30am 3.6 -1.7 -3.6 59 2.6 WSW 15 20 8 11 1015.6 1015.7 0.0
19/04:00am 4.3 -1.7 -3.2 58 2.8 WSW 19 24 10 13 1015.4 1015.4 0.0
19/03:30am 4.8 -1.1 -2.5 59 2.8 WSW 19 26 10 14 1015.4 1015.4 0.0
19/03:00am 5.2 -0.3 -2.4 58 2.9 WSW 17 24 9 13 1015.4 1015.4 0.0
19/02:30am 5.5 -0.5 -3.3 53 3.3 WSW 19 24 10 13 1015.4 1015.4 0.0
19/02:00am 6.9 0.6 -3.6 47 4.0 W 20 28 11 15 1015.4 1015.4 0.0
19/01:30am 6.9 0.8 -3.9 46 4.1 W 19 24 10 13 1015.6 1015.7 0.0
19/01:00am 7.1 0.8 -4.0 45 4.2 W 20 26 11 14 1015.7 1015.8 0.0
19/12:30am 8.4 1.0 -3.7 42 4.7 WNW 26 33 14 18 1015.5 1015.6 0.0
19/12:00am 7.1 0.4 -4.6 43 4.4 WNW 22 26 12 14 1015.4 1015.4 0.0
 
Date/Time
EST
Temp
°C
App
Temp
°C
Dew
Point
°C
Rel
Hum
%
Delta-T
°C
Wind Press
QNH
hPa
Press
MSL
hPa
Rain since
9am
mm
Dir  Spd
km/h
Gust
km/h
Spd
kts
Gust
kts
18/11:30pm 7.8 1.5 -4.3 42 4.6 WNW 20 28 11 15 1015.6 1015.7 0.0
18/11:00pm 7.4 1.2 -5.0 41 4.6 WNW 19 24 10 13 1015.8 1015.9 0.0
18/10:30pm 7.9 1.1 -5.2 39 4.9 W 22 28 12 15 1016.0 1016.0 0.0
18/10:00pm 8.4 1.5 -5.8 36 5.2 WNW 22 30 12 16 1016.1 1016.1 0.0
18/09:30pm 8.9 1.2 -6.1 34 5.5 WNW 26 32 14 17 1016.3 1016.4 0.0
18/09:00pm 8.7 1.0 -6.3 34 5.5 W 26 32 14 17 1016.2 1016.2 0.0
18/08:30pm 8.4 1.1 -6.5 34 5.4 WNW 24 28 13 15 1016.2 1016.2 0.0
18/08:00pm 7.4 0.8 -6.7 36 5.0 W 20 26 11 14 1016.2 1016.2 0.0
18/07:30pm 8.6 1.7 -6.4 34 5.5 WNW 22 28 12 15 1016.1 1016.1 0.0
18/07:00pm 9.0 2.1 -6.0 34 5.5 W 22 28 12 15 1015.8 1015.9 0.0
18/06:30pm 10.5 2.9 -5.5 32 6.1 WNW 26 33 14 18 1015.6 1015.7 0.0
18/06:00pm 10.8 3.6 -5.6 31 6.2 WNW 24 30 13 16 1015.3 1015.3 0.0
18/05:30pm 12.1 3.1 -5.8 28 6.9 WNW 33 44 18 24 1015.1 1015.1 0.0
18/05:00pm 13.1 3.0 -5.9 26 7.4 W 39 54 21 29 1014.8 1014.9 0.0
18/04:57pm 13.2 3.9 -5.4 27 7.3 W 35 54 19 29 1015.0 1015.0 0.0
18/04:30pm 13.9 3.8 -5.8 25 7.7 WNW 39 56 21 30 1014.7 1014.8 0.0
18/04:13pm 14.3 4.6 -5.4 25 7.8 WNW 37 56 20 30 1014.5 1014.5 0.0
18/04:00pm 15.0 5.4 -4.8 25 8.0 WNW 37 52 20 28 1014.6 1014.7 0.0
18/03:30pm 15.4 6.1 -5.0 24 8.3 W 35 50 19 27 1014.5 1014.5 0.0
18/03:17pm 15.7 6.5 -4.8 24 8.4 W 35 54 19 29 1014.6 1014.7 0.0
18/03:00pm 15.3 5.6 -5.7 23 8.4 WNW 37 48 20 26 1014.5 1014.5 0.0
18/02:31pm 15.6 7.3 -4.9 24 8.3 W 30 50 16 27 1014.8 1014.9 0.0
18/02:30pm 15.7 7.4 -4.8 24 8.4 W 30 39 16 21 1015.0 1015.0 0.0
18/02:27pm 15.6 6.9 -4.9 24 8.3 WNW 32 50 17 27 1015.0 1015.0 0.0
18/02:00pm 15.0 5.3 -5.9 23 8.3 W 37 52 20 28 1015.2 1015.2 0.0
18/01:30pm 15.4 5.6 -6.8 21 8.7 W 37 50 20 27 1015.6 1015.7 0.0
18/01:16pm 14.9 4.6 -7.8 20 8.6 WNW 39 59 21 32 1015.7 1015.8 0.0
18/01:00pm 14.8 4.3 -6.1 23 8.2 W 41 52 22 28 1016.0 1016.0 0.0
18/12:30pm 14.4 3.7 -4.3 27 7.6 W 43 63 23 34 1016.5 1016.6 0.0
18/12:23pm 14.9 5.3 -4.9 25 8.0 W 37 63 20 34 1016.4 1016.5 0.0
18/12:00pm 14.2 4.6 -4.5 27 7.6 W 37 46 20 25 1017.0 1017.0 0.0
18/11:30am 13.4 3.4 -4.7 28 7.2 W 39 54 21 29 1017.5 1017.6 0.0
18/11:00am 14.1 4.2 -4.1 28 7.4 W 39 48 21 26 1017.7 1017.8 0.0
18/10:30am 12.7 2.7 -4.4 30 6.8 W 39 52 21 28 1017.9 1018.1 0.0
18/10:14am 12.8 3.6 -4.8 29 7.0 W 35 57 19 31 1018.1 1018.2 0.0
18/10:00am 12.8 4.2 -4.3 30 6.8 W 32 46 17 25 1018.2 1018.3 0.0
18/09:30am 11.6 4.9 -4.1 33 6.2 WSW 22 32 12 17 1018.4 1018.5 0.0
18/09:00am 10.7 4.0 -4.5 34 5.9 WSW 22 32 12 17 1018.3 1018.4 0.0
18/08:30am 7.9 4.0 -1.6 51 3.8 W 9 13 5 7 1018.4 1018.5 0.0
18/08:00am 3.0 0.8 -1.5 72 1.7 CALM 0 0 0 0 1018.3 1018.4 0.0

Other Formats:

Comma delimited format used in spreadsheet applications
http://www.bom.gov.au/fwo/IDN60801/IDN60801.94588.axf

JavaScript Object Notation format (JSON) in row-major order
http://www.bom.gov.au/fwo/IDN60801/IDN60801.94588.json